createdAt,value
2016-03-14T10:13:03.143Z,245
2016-03-14T10:14:03.130Z,240
2016-03-14T10:15:02.977Z,235
2016-03-14T10:16:03.072Z,260
2016-03-14T10:17:02.904Z,260
2016-03-14T10:18:04.640Z,265
2016-03-14T10:19:02.971Z,245
2016-03-14T10:20:03.083Z,235
2016-03-14T10:21:02.992Z,230
2016-03-14T10:22:19.810Z,230
2016-03-14T10:23:12.610Z,235
2016-03-14T10:24:03.126Z,230
2016-03-14T10:25:03.753Z,230
2016-03-14T10:26:03.053Z,245
2016-03-14T10:28:03.026Z,250
2016-03-14T10:30:03.079Z,280
2016-03-14T10:31:03.051Z,290
2016-03-14T10:32:02.959Z,295
2016-03-14T10:33:03.150Z,295
2016-03-14T10:34:02.840Z,265
2016-03-14T10:35:02.937Z,255
2016-03-14T10:36:02.892Z,250
2016-03-14T10:37:02.832Z,245
2016-03-14T10:38:33.759Z,245
2016-03-14T10:39:02.869Z,255
2016-03-14T10:40:02.841Z,245
2016-03-14T10:41:02.858Z,230
2016-03-14T10:42:03.221Z,245
2016-03-14T10:43:11.208Z,255
2016-03-14T10:44:03.055Z,260
2016-03-14T10:45:02.947Z,270
2016-03-14T10:46:02.778Z,270
2016-03-14T10:47:04.938Z,270
2016-03-14T10:48:03.112Z,265
2016-03-14T10:49:02.896Z,265
2016-03-14T10:50:02.914Z,250
2016-03-14T10:51:02.901Z,245
2016-03-14T10:52:02.701Z,235
2016-03-14T10:53:09.468Z,235
2016-03-14T10:54:02.924Z,225
2016-03-14T10:55:02.927Z,235
2016-03-14T10:56:02.929Z,235
2016-03-14T10:57:02.902Z,240
2016-03-14T10:58:02.592Z,240
2016-03-14T10:59:02.563Z,240
2016-03-14T11:00:11.175Z,245
2016-03-14T11:01:02.679Z,235
2016-03-14T11:02:02.744Z,235
2016-03-14T11:03:08.059Z,230
2016-03-14T11:04:02.609Z,230
2016-03-14T11:05:02.565Z,235
2016-03-14T11:06:02.474Z,240
2016-03-14T11:07:02.976Z,240
2016-03-14T11:08:02.620Z,240
2016-03-14T11:09:02.576Z,245
2016-03-14T11:10:02.484Z,250
2016-03-14T11:11:02.612Z,250
2016-03-14T11:12:02.427Z,255
2016-03-14T11:13:11.164Z,260
2016-03-14T11:14:02.464Z,265
2016-03-14T11:15:02.467Z,265
2016-03-14T11:16:02.501Z,265
2016-03-14T11:17:02.519Z,270
2016-03-14T11:18:02.475Z,260
2016-03-14T11:19:02.461Z,270
2016-03-14T11:20:02.495Z,270
2016-03-14T11:21:02.467Z,270
2016-03-14T11:22:02.395Z,265
2016-03-14T11:23:02.335Z,270
2016-03-14T11:24:03.165Z,270
2016-03-14T11:25:02.418Z,280
2016-03-14T11:26:02.733Z,275
2016-03-14T11:27:02.361Z,280
2016-03-14T11:28:02.285Z,295
2016-03-14T11:29:02.304Z,305
2016-03-14T11:30:02.369Z,315
2016-03-14T11:32:02.281Z,330
2016-03-14T11:33:02.408Z,320
2016-03-14T11:34:02.255Z,305
2016-03-14T11:35:11.086Z,300
2016-03-14T11:36:02.307Z,315
2016-03-14T11:37:02.357Z,325
2016-03-14T11:38:02.109Z,315
2016-03-14T11:39:02.221Z,310
2016-03-14T11:40:02.318Z,320
2016-03-14T11:41:02.539Z,330
2016-03-14T11:42:02.246Z,340
2016-03-14T11:43:02.420Z,355
2016-03-14T11:44:02.266Z,370
2016-03-14T11:45:03.112Z,355
2016-03-14T11:46:02.068Z,350
2016-03-14T11:48:02.089Z,350
2016-03-14T11:49:03.780Z,340
2016-03-14T11:50:11.892Z,330
2016-03-14T11:51:02.098Z,330
2016-03-14T11:52:01.928Z,330
2016-03-14T11:53:13.277Z,320
2016-03-14T11:54:01.996Z,330
2016-03-14T11:55:02.023Z,350
2016-03-14T11:56:02.017Z,365
2016-03-14T11:57:01.790Z,385
2016-03-14T11:58:01.939Z,400
2016-03-14T11:59:01.907Z,420
2016-03-14T12:00:10.717Z,420
2016-03-14T12:01:01.841Z,430
2016-03-14T12:02:10.683Z,425
2016-03-14T12:03:02.339Z,425
2016-03-14T12:04:01.869Z,420
2016-03-14T12:05:01.917Z,415
2016-03-14T12:06:01.996Z,410
2016-03-14T12:07:01.857Z,400
2016-03-14T12:08:02.234Z,410
2016-03-14T12:09:01.860Z,410
2016-03-14T12:10:01.862Z,405
2016-03-14T12:11:01.787Z,420
2016-03-14T12:12:01.773Z,420
2016-03-14T12:13:01.605Z,415
2016-03-14T12:14:01.668Z,415
2016-03-14T12:15:01.812Z,425
2016-03-14T12:16:01.720Z,430
2016-03-14T12:17:01.754Z,430
2016-03-14T12:18:10.334Z,430
2016-03-14T12:19:01.524Z,435
2016-03-14T12:20:01.917Z,430
2016-03-14T12:21:01.716Z,425
2016-03-14T12:22:01.860Z,410
2016-03-14T12:23:01.628Z,395
2016-03-14T12:24:01.663Z,395
2016-03-14T12:25:01.680Z,385
2016-03-14T12:26:08.433Z,380
2016-03-14T12:27:01.607Z,375
2016-03-14T12:28:01.548Z,380
2016-03-14T12:29:01.644Z,375
2016-03-14T12:30:01.694Z,380
2016-03-14T12:31:01.729Z,375
2016-03-14T12:32:01.262Z,380
2016-03-14T12:33:01.609Z,375
2016-03-14T12:34:10.111Z,375
2016-03-14T12:35:02.129Z,375
2016-03-14T12:36:01.553Z,375
2016-03-14T12:37:01.667Z,370
2016-03-14T12:38:01.497Z,365
2016-03-14T12:39:01.531Z,350
2016-03-14T12:40:01.518Z,345
2016-03-14T12:41:01.568Z,330
2016-03-14T12:42:01.867Z,330
2016-03-14T12:43:01.511Z,315
2016-03-14T12:44:01.481Z,305
2016-03-14T12:45:01.438Z,295
2016-03-14T12:46:09.158Z,290
2016-03-14T12:47:01.458Z,290
2016-03-14T12:48:01.274Z,285
2016-03-14T12:49:01.369Z,280
2016-03-14T12:50:01.669Z,275
2016-03-14T12:52:01.472Z,265
2016-03-14T12:53:01.599Z,255
2016-03-14T12:54:01.384Z,255
2016-03-14T12:55:01.371Z,250
2016-03-14T12:56:01.357Z,240
2016-03-14T12:57:09.689Z,240
2016-03-14T12:58:01.426Z,240
2016-03-14T13:00:01.306Z,235
2016-03-14T13:01:01.293Z,235
2016-03-14T13:02:01.529Z,230
2016-03-14T13:03:01.282Z,230
2016-03-14T13:04:01.348Z,225
2016-03-14T13:05:07.116Z,220
2016-03-14T13:06:09.540Z,215
2016-03-14T13:07:01.918Z,210
2016-03-14T13:08:01.061Z,205
2016-03-14T13:09:01.159Z,200
2016-03-14T13:10:01.192Z,200
2016-03-14T13:11:01.461Z,195
2016-03-14T13:12:01.292Z,190
2016-03-14T13:13:01.216Z,195
2016-03-14T13:14:01.187Z,195
2016-03-14T13:15:01.518Z,195
2016-03-14T13:16:01.364Z,200
2016-03-14T13:17:01.180Z,195
2016-03-14T13:18:01.120Z,200
2016-03-14T13:19:01.497Z,195
2016-03-14T13:20:01.188Z,195
2016-03-14T13:21:01.034Z,190
2016-03-14T13:22:01.021Z,190
2016-03-14T13:23:10.790Z,190
2016-03-14T13:24:01.292Z,190
2016-03-14T13:25:01.077Z,190
2016-03-14T13:26:10.813Z,190
2016-03-14T13:27:01.035Z,190
2016-03-14T13:28:01.787Z,185
2016-03-14T13:29:00.994Z,185
2016-03-14T13:30:01.293Z,185
2016-03-14T13:31:01.107Z,185
2016-03-14T13:32:09.704Z,185
2016-03-14T13:33:00.910Z,180
2016-03-14T13:34:00.882Z,175
2016-03-14T13:36:00.840Z,175
2016-03-14T13:37:00.906Z,170
2016-03-14T13:38:00.876Z,165
2016-03-14T13:39:01.083Z,165
2016-03-14T13:41:00.963Z,165
2016-03-14T13:42:00.810Z,170
2016-03-14T13:43:09.672Z,170
2016-03-14T13:44:01.065Z,165
2016-03-14T13:45:00.895Z,165
2016-03-14T13:46:00.805Z,165
2016-03-14T13:47:00.948Z,160
2016-03-14T13:48:00.825Z,160
2016-03-14T13:49:00.922Z,160
2016-03-14T13:50:00.769Z,160
2016-03-14T13:51:00.803Z,155
2016-03-14T13:52:00.743Z,160
2016-03-14T13:53:09.949Z,160
2016-03-14T13:54:00.607Z,160
2016-03-14T13:55:01.173Z,160
2016-03-14T13:57:00.677Z,155
2016-03-14T13:58:00.696Z,155
2016-03-14T13:59:00.683Z,155
2016-03-14T14:00:00.655Z,150
2016-03-14T14:01:00.610Z,150
2016-03-14T14:02:00.910Z,155
2016-03-14T14:03:08.709Z,155
2016-03-14T14:04:00.728Z,150
2016-03-14T14:05:00.590Z,155
2016-03-14T14:08:01.869Z,150
2016-03-14T14:09:09.136Z,155
2016-03-14T14:10:09.124Z,155
2016-03-14T14:11:00.502Z,150
2016-03-14T14:12:00.458Z,150
2016-03-14T14:13:00.492Z,155
2016-03-14T14:14:00.589Z,150
2016-03-14T14:15:00.481Z,150
2016-03-14T14:16:00.484Z,150
2016-03-14T14:17:00.283Z,150
2016-03-14T14:18:00.521Z,150
2016-03-14T14:19:00.430Z,155
2016-03-14T14:20:07.760Z,155
2016-03-14T14:21:00.450Z,155
2016-03-14T14:22:00.375Z,150
2016-03-14T14:23:02.441Z,150
2016-03-14T14:24:00.412Z,150
2016-03-14T14:25:00.383Z,150
2016-03-14T14:26:00.324Z,150
2016-03-14T14:27:00.326Z,150
2016-03-14T14:28:09.141Z,150
2016-03-14T14:29:00.315Z,145
2016-03-14T14:30:00.287Z,145
2016-03-14T14:31:00.274Z,145
2016-03-14T14:32:00.371Z,145
2016-03-14T14:33:00.233Z,145
2016-03-14T14:34:00.345Z,145
2016-03-14T14:35:00.223Z,145
2016-03-14T14:36:00.162Z,145
2016-03-14T14:37:08.728Z,145
2016-03-14T14:38:00.137Z,145
2016-03-14T14:39:00.531Z,140
2016-03-14T14:40:00.768Z,140
2016-03-14T14:41:00.254Z,140
2016-03-14T14:42:00.179Z,140
2016-03-14T14:43:00.088Z,140
2016-03-14T14:44:00.028Z,140
2016-03-14T14:45:00.125Z,140
2016-03-14T14:46:08.877Z,140
2016-03-14T14:47:00.224Z,140
2016-03-14T14:48:01.304Z,140
2016-03-14T14:49:00.136Z,140
2016-03-14T14:50:08.138Z,140
2016-03-14T14:51:08.735Z,140
2016-03-14T14:52:00.050Z,140
2016-03-14T14:53:00.833Z,135
2016-03-14T14:54:08.461Z,135
2016-03-14T14:55:00.964Z,135
2016-03-14T14:55:59.919Z,135
2016-03-14T14:57:00.422Z,135
2016-03-14T14:57:59.956Z,135
2016-03-14T14:59:00.099Z,135
2016-03-14T14:59:59.993Z,135
2016-03-14T15:00:59.887Z,135
2016-03-14T15:01:59.921Z,135
2016-03-14T15:02:59.985Z,135
2016-03-14T15:03:59.956Z,135
2016-03-14T15:05:00.132Z,135
2016-03-14T15:05:59.978Z,130
2016-03-14T15:07:00.012Z,130
2016-03-14T15:07:59.983Z,130
2016-03-14T15:08:59.845Z,130
2016-03-14T15:09:59.911Z,130
2016-03-14T15:11:00.101Z,130
2016-03-14T15:12:06.619Z,130
2016-03-14T15:13:08.184Z,130
2016-03-14T15:14:01.078Z,130
2016-03-14T15:14:59.861Z,130
2016-03-14T15:16:00.239Z,130
2016-03-14T15:16:59.976Z,130
2016-03-14T15:18:00.557Z,130
2016-03-14T15:18:59.856Z,130
2016-03-14T15:20:05.422Z,130
2016-03-14T15:21:00.033Z,130
2016-03-14T15:21:59.708Z,130
2016-03-14T15:22:59.805Z,130
2016-03-14T15:24:00.244Z,130
2016-03-14T15:24:59.904Z,130
2016-03-14T15:25:59.750Z,130
2016-03-14T15:26:59.785Z,130
2016-03-14T15:27:59.849Z,130
2016-03-14T15:29:07.743Z,135
2016-03-14T15:29:59.464Z,135
2016-03-14T15:30:59.858Z,135
2016-03-14T15:31:59.657Z,140
2016-03-14T15:33:01.004Z,140
2016-03-14T15:33:59.726Z,140
2016-03-14T15:34:59.399Z,135
2016-03-14T15:35:59.637Z,135
2016-03-14T15:37:08.046Z,130
2016-03-14T15:39:07.660Z,130
2016-03-14T15:39:59.522Z,130
2016-03-14T15:40:59.540Z,130
2016-03-14T15:42:59.671Z,135
2016-03-14T15:43:59.768Z,135
2016-03-14T15:44:59.630Z,135
2016-03-14T15:45:59.523Z,130
2016-03-14T15:46:59.447Z,130
2016-03-14T15:47:59.434Z,130
2016-03-14T15:48:59.645Z,130
2016-03-14T15:49:59.461Z,130
2016-03-14T15:50:59.464Z,130
2016-03-14T15:52:02.185Z,130
2016-03-14T15:52:59.531Z,125
2016-03-14T15:53:59.441Z,125
2016-03-14T15:54:59.349Z,125
2016-03-14T15:55:59.867Z,125
2016-03-14T15:57:03.246Z,125
2016-03-14T15:58:06.716Z,125
2016-03-14T15:58:59.454Z,125
2016-03-14T16:00:07.581Z,120
2016-03-14T16:00:59.413Z,120
2016-03-14T16:01:59.305Z,115
2016-03-14T16:02:59.105Z,115
2016-03-14T16:03:59.248Z,115
2016-03-14T16:04:59.267Z,110
2016-03-14T16:05:59.176Z,110
2016-03-14T16:06:59.443Z,105
2016-03-14T16:08:59.199Z,105
2016-03-14T16:09:59.281Z,100
2016-03-14T16:10:59.158Z,100
2016-03-14T16:12:07.161Z,95
2016-03-14T16:12:59.584Z,95
2016-03-14T16:13:59.151Z,95
2016-03-14T16:14:59.528Z,90
2016-03-14T16:15:59.125Z,90
2016-03-14T16:16:59.517Z,85
2016-03-14T16:17:59.536Z,85
2016-03-14T16:18:59.288Z,85
2016-03-14T16:19:59.058Z,85
2016-03-14T16:20:59.075Z,85
2016-03-14T16:22:58.925Z,80
2016-03-14T16:24:07.958Z,80
2016-03-14T16:24:58.836Z,80
2016-03-14T16:25:59.433Z,80
2016-03-14T16:28:07.735Z,80
2016-03-14T16:28:58.877Z,75
2016-03-14T16:30:59.040Z,75
2016-03-14T16:32:07.730Z,70
2016-03-14T16:32:59.112Z,70
2016-03-14T16:33:58.990Z,65
2016-03-14T16:34:58.946Z,65
2016-03-14T16:35:59.136Z,65
2016-03-14T16:36:58.889Z,60
2016-03-14T16:37:58.954Z,60
2016-03-14T16:38:58.723Z,60
2016-03-14T16:39:58.819Z,55
2016-03-14T16:40:58.868Z,55
2016-03-14T16:41:58.995Z,55
2016-03-14T16:42:58.967Z,50
2016-03-14T16:43:58.767Z,50
2016-03-14T16:44:58.864Z,50
2016-03-14T16:45:58.772Z,50
2016-03-14T16:46:58.884Z,50
2016-03-14T16:47:58.809Z,50
2016-03-14T16:49:07.218Z,50
2016-03-14T16:49:58.721Z,50
2016-03-14T16:50:58.880Z,45
2016-03-14T16:52:07.741Z,45
2016-03-14T16:53:07.666Z,45
2016-03-14T16:53:58.591Z,45
2016-03-14T16:54:59.249Z,40
2016-03-14T16:55:58.721Z,40
2016-03-14T16:56:58.708Z,40
2016-03-14T16:58:01.538Z,40
2016-03-14T16:58:58.683Z,35
2016-03-14T17:00:07.013Z,30
2016-03-14T17:00:58.532Z,30
2016-03-14T17:01:58.566Z,25
2016-03-14T17:02:58.553Z,25
2016-03-14T17:03:58.760Z,20
2016-03-14T17:04:58.653Z,20
2016-03-14T17:05:58.452Z,20
2016-03-14T17:08:06.631Z,15
2016-03-14T17:08:58.492Z,15
2016-03-14T17:09:58.526Z,10
2016-03-14T17:10:58.420Z,10
2016-03-14T17:12:06.782Z,10
2016-03-14T17:13:58.475Z,10
2016-03-14T17:14:58.447Z,10
2016-03-14T17:16:05.761Z,10
2016-03-14T17:16:58.406Z,10
2016-03-14T17:18:01.331Z,10
2016-03-14T17:18:58.443Z,5
2016-03-14T17:19:59.179Z,5
2016-03-14T17:21:07.151Z,5
2016-03-14T17:22:58.547Z,0
2016-03-14T17:23:58.269Z,0
2016-03-14T17:24:58.365Z,0
2016-03-14T17:25:58.305Z,0
2016-03-14T17:26:58.308Z,0
2016-03-14T17:27:58.373Z,0
2016-03-14T17:29:08.828Z,0
2016-03-14T22:43:55.431Z,0
2016-03-14T22:44:55.746Z,0
2016-03-14T22:46:03.701Z,0
2016-03-14T22:46:55.440Z,0
2016-03-14T22:47:55.490Z,0
2016-03-14T22:49:04.070Z,0
2016-03-14T22:49:55.650Z,0
2016-03-14T22:50:55.434Z,0
2016-03-14T22:51:55.390Z,0
2016-03-14T22:52:55.440Z,0
2016-03-14T22:53:55.631Z,0
2016-03-14T22:54:55.445Z,0
2016-03-14T22:56:04.120Z,0
2016-03-14T22:56:55.217Z,0
2016-03-14T22:57:55.970Z,0
2016-03-14T22:58:55.330Z,0
2016-03-14T22:59:55.756Z,0
2016-03-14T23:00:55.368Z,0
2016-03-14T23:01:55.308Z,0
2016-03-14T23:02:55.280Z,0
2016-03-14T23:04:55.222Z,0
2016-03-14T23:07:26.043Z,0
2016-03-14T23:08:04.230Z,0
2016-03-14T23:08:55.374Z,0
2016-03-14T23:09:55.360Z,0
2016-03-14T23:10:55.488Z,0
2016-03-14T23:11:55.162Z,0
2016-03-14T23:12:55.369Z,0
2016-03-14T23:13:55.122Z,0
2016-03-14T23:14:55.062Z,0
2016-03-14T23:16:03.815Z,0
2016-03-14T23:16:55.114Z,0
2016-03-14T23:18:03.132Z,0
2016-03-14T23:18:54.978Z,0
2016-03-14T23:20:03.701Z,0
